Time;durP1;ratioP1;P1;durP2;ratioP2;P2;SDS_P1;SDS_P2;PMS_P1;PMS_P2;Temp;Humidity;BMP_temperature;BMP_pressure;BME280_temperature;BME280_humidity;BME280_pressure;Samples;Min_cycle;Max_cycle;Signal;HPM_P1;HPM_P2
2022/06/26 00:00:32;;;;;;;53.90;30.17;;;;;;;16.23;100.00;101142.56;5010713;28;20029;-77
2022/06/26 00:02:58;;;;;;;50.63;28.58;;;;;;;16.19;100.00;101141.31;5011110;28;20496;-78
2022/06/26 00:05:23;;;;;;;51.55;26.58;;;;;;;16.08;100.00;101147.38;5010582;28;20441;-79
2022/06/26 00:07:49;;;;;;;39.63;22.88;;;;;;;15.98;100.00;101145.09;5010873;28;20044;-78
2022/06/26 00:10:15;;;;;;;42.83;22.45;;;;;;;15.93;100.00;101143.03;5010592;28;20030;-78
2022/06/26 00:12:40;;;;;;;41.28;22.90;;;;;;;15.94;100.00;101138.44;5010756;28;20458;-78
2022/06/26 00:15:06;;;;;;;40.80;21.65;;;;;;;15.93;100.00;101151.16;5010435;28;20065;-78
2022/06/26 00:17:32;;;;;;;42.95;21.75;;;;;;;15.92;100.00;101152.19;5011279;28;20030;-78
2022/06/26 00:19:57;;;;;;;48.03;21.02;;;;;;;15.91;100.00;101155.97;5014500;28;20038;-79
2022/06/26 00:22:22;;;;;;;45.78;20.58;;;;;;;15.87;100.00;101154.69;5014535;28;20022;-78
2022/06/26 00:24:48;;;;;;;37.08;20.55;;;;;;;15.83;100.00;101150.75;5014248;28;20057;-78
2022/06/26 00:27:13;;;;;;;35.63;19.38;;;;;;;15.81;100.00;101155.53;5013660;28;20093;-78
2022/06/26 00:29:38;;;;;;;33.03;20.05;;;;;;;15.79;100.00;101157.63;5014538;28;20121;-79
2022/06/26 00:32:05;;;;;;;42.47;20.88;;;;;;;15.73;100.00;101161.19;5013263;28;20033;-78
2022/06/26 00:34:30;;;;;;;41.95;20.77;;;;;;;15.67;100.00;101159.28;5013359;28;20100;-78
2022/06/26 00:36:56;;;;;;;40.45;21.20;;;;;;;15.61;100.00;101166.34;5014315;28;20401;-79
2022/06/26 00:39:21;;;;;;;40.20;23.63;;;;;;;15.61;100.00;101168.22;5014588;28;20036;-78
2022/06/26 00:41:47;;;;;;;43.53;23.48;;;;;;;15.56;100.00;101164.28;5013984;28;20086;-78
2022/06/26 00:44:17;;;;;;;45.47;24.23;;;;;;;15.55;100.00;101167.19;5014415;28;20084;-78
2022/06/26 00:46:44;;;;;;;51.58;25.17;;;;;;;15.56;100.00;101155.28;5014103;28;20033;-78
2022/06/26 00:49:09;;;;;;;46.97;24.40;;;;;;;15.52;100.00;101151.31;5014219;28;20041;-78
2022/06/26 00:51:35;;;;;;;49.33;25.83;;;;;;;15.47;100.00;101160.06;5014194;28;20028;-78
2022/06/26 00:54:01;;;;;;;49.67;26.02;;;;;;;15.45;100.00;101159.44;5012481;28;20030;-78
2022/06/26 00:56:26;;;;;;;47.28;26.33;;;;;;;15.39;100.00;101152.13;5013564;28;20033;-78
2022/06/26 00:58:52;;;;;;;52.22;26.33;;;;;;;15.33;100.00;101148.38;5013738;28;20030;-78
2022/06/26 01:01:17;;;;;;;50.28;27.55;;;;;;;15.35;100.00;101156.31;5013728;28;20422;-78
2022/06/26 01:03:43;;;;;;;51.83;27.40;;;;;;;15.36;100.00;101158.81;5014090;28;20447;-79
2022/06/26 01:06:09;;;;;;;50.33;26.98;;;;;;;15.32;100.00;101145.88;5013622;28;20018;-79
2022/06/26 01:08:34;;;;;;;55.05;26.63;;;;;;;15.35;100.00;101150.91;5013983;28;20492;-79
2022/06/26 01:11:00;;;;;;;57.50;28.38;;;;;;;15.33;100.00;101142.97;4996191;28;20445;-78
2022/06/26 01:13:25;;;;;;;53.83;28.25;;;;;;;15.30;100.00;101159.66;5013502;28;20072;-78
2022/06/26 01:15:51;;;;;;;57.60;27.73;;;;;;;15.24;100.00;101151.47;5011444;28;20040;-79
2022/06/26 01:18:16;;;;;;;53.30;26.65;;;;;;;15.22;100.00;101158.97;5010891;28;20486;-79
2022/06/26 01:20:42;;;;;;;59.28;26.55;;;;;;;15.24;100.00;101160.44;5012978;28;20362;-79
2022/06/26 01:23:08;;;;;;;57.00;27.05;;;;;;;15.21;100.00;101160.84;5011936;28;20125;-79
2022/06/26 01:25:44;;;;;;;46.83;24.42;;;;;;;15.19;100.00;101162.94;5012025;28;20062;-79
2022/06/26 01:28:10;;;;;;;48.28;24.48;;;;;;;15.21;100.00;101162.75;5013259;28;20029;-79
2022/06/26 01:30:36;;;;;;;41.45;22.67;;;;;;;15.22;100.00;101162.56;5013647;28;20121;-79
2022/06/26 01:33:01;;;;;;;48.20;24.15;;;;;;;15.21;100.00;101165.44;5011589;28;20026;-79
2022/06/26 01:35:27;;;;;;;43.05;22.83;;;;;;;15.21;100.00;101160.03;5011539;28;20373;-78
2022/06/26 01:37:52;;;;;;;43.08;23.50;;;;;;;15.17;100.00;101172.34;5013231;28;20053;-79
2022/06/26 01:40:17;;;;;;;41.58;21.77;;;;;;;15.10;100.00;101170.41;5013564;28;20053;-79
2022/06/26 01:42:43;;;;;;;43.97;22.25;;;;;;;15.08;100.00;101167.06;5011573;28;20033;-79
2022/06/26 01:45:08;;;;;;;40.15;20.58;;;;;;;15.06;100.00;101171.88;5013288;28;20521;-79
2022/06/26 01:47:34;;;;;;;42.50;22.67;;;;;;;15.00;100.00;101179.97;5012829;28;20030;-79
2022/06/26 01:49:59;;;;;;;42.53;22.02;;;;;;;14.94;100.00;101176.22;5012987;28;20025;-79
2022/06/26 01:52:24;;;;;;;44.00;22.90;;;;;;;14.90;100.00;101174.94;5012582;28;20401;-79
2022/06/26 01:54:50;;;;;;;47.08;21.92;;;;;;;14.91;100.00;101174.75;5012892;28;20116;-79
2022/06/26 01:57:15;;;;;;;39.13;22.13;;;;;;;14.85;100.00;101167.44;5012978;28;20113;-79
2022/06/26 01:59:40;;;;;;;46.05;22.63;;;;;;;14.86;100.00;101173.69;5013004;28;20025;-79
2022/06/26 02:02:06;;;;;;;45.40;23.60;;;;;;;14.85;100.00;101158.44;5012672;28;20025;-79
2022/06/26 02:04:31;;;;;;;45.92;22.65;;;;;;;14.85;100.00;101166.56;5012781;28;20022;-79
2022/06/26 02:06:56;;;;;;;45.83;23.70;;;;;;;14.85;100.00;101172.00;5012477;28;20034;-79
2022/06/26 02:14:50;;;;;;;50.60;25.25;;;;;;;14.83;100.00;101165.97;5012356;28;20049;-78
2022/06/26 02:17:16;;;;;;;54.90;25.85;;;;;;;14.82;100.00;101172.41;5011470;28;20026;-79
2022/06/26 02:19:41;;;;;;;54.92;25.55;;;;;;;14.80;100.00;101166.38;5012660;28;20122;-79
2022/06/26 02:22:06;;;;;;;51.20;24.38;;;;;;;14.80;100.00;101163.66;5012002;28;20022;-79
2022/06/26 02:24:31;;;;;;;53.35;25.15;;;;;;;14.76;100.00;101162.38;5012605;28;20085;-80
2022/06/26 02:26:57;;;;;;;56.00;26.52;;;;;;;14.79;100.00;101159.25;5012544;28;20421;-77
2022/06/26 02:29:22;;;;;;;52.58;24.95;;;;;;;14.76;100.00;101156.97;5011918;28;20062;-77
2022/06/26 02:31:47;;;;;;;58.00;26.45;;;;;;;14.76;100.00;101156.97;5011642;28;20029;-77
2022/06/26 02:34:13;;;;;;;52.63;26.05;;;;;;;14.74;100.00;101165.28;5012279;28;20038;-76
2022/06/26 02:36:38;;;;;;;57.33;26.58;;;;;;;14.73;100.00;101158.19;5012952;28;20126;-76
2022/06/26 02:39:03;;;;;;;57.20;26.92;;;;;;;14.69;100.00;101156.91;5013164;28;20501;-77
2022/06/26 02:41:29;;;;;;;52.65;25.60;;;;;;;14.67;100.00;101154.44;5012491;28;20026;-76
2022/06/26 02:43:54;;;;;;;55.75;25.33;;;;;;;14.65;100.00;101151.06;5011749;28;20028;-77
2022/06/26 02:46:19;;;;;;;51.25;26.42;;;;;;;14.59;100.00;101146.47;5011582;28;20058;-77
2022/06/26 02:48:45;;;;;;;60.97;26.77;;;;;;;14.60;100.00;101158.13;5012055;28;20386;-78
2022/06/26 02:51:10;;;;;;;52.65;26.63;;;;;;;14.60;100.00;101158.13;5012219;28;20286;-77
2022/06/26 02:53:36;;;;;;;51.97;25.40;;;;;;;14.58;100.00;101161.03;5011438;28;20366;-78
2022/06/26 02:56:01;;;;;;;52.70;25.60;;;;;;;14.58;100.00;101155.63;5010463;28;20037;-78
2022/06/26 02:58:26;;;;;;;51.38;25.67;;;;;;;14.57;100.00;101162.09;5011738;28;20032;-78
2022/06/26 03:00:52;;;;;;;55.22;24.33;;;;;;;14.57;100.00;101162.09;5011383;28;20026;-78
2022/06/26 03:03:18;;;;;;;49.47;24.40;;;;;;;14.57;100.00;101164.78;5012340;28;20067;-78
2022/06/26 03:05:43;;;;;;;51.03;25.13;;;;;;;14.54;100.00;101162.50;5010128;28;20026;-78
2022/06/26 03:08:09;;;;;;;49.00;24.73;;;;;;;14.53;100.00;101168.91;5011718;28;20030;-78
2022/06/26 03:10:34;;;;;;;49.97;23.73;;;;;;;14.52;100.00;101171.81;5010116;28;20029;-79
2022/06/26 03:13:00;;;;;;;52.95;23.58;;;;;;;14.49;100.00;101170.34;5010521;28;20468;-78
2022/06/26 03:15:25;;;;;;;48.38;24.30;;;;;;;14.49;100.00;101167.63;5010025;28;20034;-77
2022/06/26 03:17:51;;;;;;;49.80;23.42;;;;;;;14.48;100.00;101176.78;5011791;28;20374;-77
2022/06/26 03:20:18;;;;;;;52.67;23.08;;;;;;;14.48;100.00;101187.59;5011534;28;20386;-79
2022/06/26 03:22:44;;;;;;;40.10;21.10;;;;;;;14.44;100.00;101186.34;5011272;28;20036;-78
2022/06/26 03:25:10;;;;;;;45.50;21.55;;;;;;;14.42;100.00;101193.81;5011063;28;20038;-77
2022/06/26 03:27:38;;;;;;;48.30;22.02;;;;;;;14.42;100.00;101188.41;5005931;28;20084;-78
2022/06/26 03:30:05;;;;;;;39.78;20.20;;;;;;;14.43;100.00;101174.69;5000723;28;20092;-78
2022/06/26 03:32:30;;;;;;;42.15;20.70;;;;;;;14.44;100.00;101180.94;5011255;28;20040;-78
2022/06/26 03:34:56;;;;;;;46.80;20.17;;;;;;;14.42;100.00;101188.41;5010863;28;20129;-78
2022/06/26 03:37:21;;;;;;;36.22;19.15;;;;;;;14.42;100.00;101188.41;5010988;28;20038;-78
2022/06/26 03:39:46;;;;;;;39.50;18.27;;;;;;;14.42;100.00;101196.53;5009631;28;20029;-78
2022/06/26 03:42:12;;;;;;;36.60;17.38;;;;;;;14.42;100.00;101189.25;5009501;28;20449;-78
2022/06/26 03:44:37;;;;;;;36.75;16.85;;;;;;;14.39;100.00;101188.81;5010811;28;20033;-78
2022/06/26 03:47:03;;;;;;;33.05;16.75;;;;;;;14.41;100.00;101195.72;5011195;28;20037;-78
2022/06/26 03:49:28;;;;;;;37.00;18.08;;;;;;;14.43;100.00;101195.53;5011385;28;20103;-78
2022/06/26 03:51:53;;;;;;;38.50;17.02;;;;;;;14.42;100.00;101193.81;5010478;28;20029;-77
2022/06/26 03:54:19;;;;;;;41.65;18.02;;;;;;;14.42;100.00;101193.81;5010817;28;20100;-77
2022/06/26 03:56:47;;;;;;;37.53;16.58;;;;;;;14.42;100.00;101200.06;5008946;28;20061;-80
2022/06/26 03:59:12;;;;;;;37.30;17.65;;;;;;;14.40;100.00;101202.16;5007536;28;20034;-79
2022/06/26 04:01:38;;;;;;;35.78;17.20;;;;;;;14.41;100.00;101197.59;5008192;28;20033;-78
2022/06/26 04:04:03;;;;;;;42.85;17.55;;;;;;;14.44;100.00;101199.88;5008458;28;20065;-77
2022/06/26 04:06:29;;;;;;;33.75;16.55;;;;;;;14.45;100.00;101210.50;5008408;28;20117;-76
2022/06/26 04:08:54;;;;;;;33.38;13.95;;;;;;;14.49;100.00;101205.56;5008554;28;20359;-77
2022/06/26 04:11:20;;;;;;;33.88;15.20;;;;;;;14.52;100.00;101207.84;5002850;28;20037;-78
2022/06/26 04:13:45;;;;;;;34.33;14.32;;;;;;;14.56;100.00;101222.72;5008862;28;20030;-78
2022/06/26 04:16:10;;;;;;;38.05;13.43;;;;;;;14.60;100.00;101218.56;5008503;28;20053;-79
2022/06/26 04:18:36;;;;;;;33.72;13.02;;;;;;;14.77;100.00;101221.78;5008218;28;20119;-76
2022/06/26 04:21:01;;;;;;;23.35;12.38;;;;;;;14.83;100.00;101212.03;5007934;28;20510;-77
2022/06/26 04:23:27;;;;;;;28.02;11.82;;;;;;;14.79;100.00;101230.53;5006716;28;20037;-78
2022/06/26 04:25:53;;;;;;;22.58;11.18;;;;;;;14.86;100.00;101238.72;5008167;28;20057;-78
2022/06/26 04:28:18;;;;;;;34.67;12.07;;;;;;;14.84;100.00;101255.16;4999886;28;20088;-78
2022/06/26 04:30:43;;;;;;;26.83;11.60;;;;;;;14.86;100.00;101258.53;5007908;28;20022;-77
2022/06/26 04:33:09;;;;;;;26.13;10.98;;;;;;;14.91;100.00;101264.19;5008360;28;20073;-79
2022/06/26 04:35:35;;;;;;;21.10;10.25;;;;;;;15.07;100.00;101257.59;5006547;28;20409;-80
2022/06/26 04:38:01;;;;;;;22.42;10.57;;;;;;;15.10;100.00;101257.16;5008380;28;20034;-79
2022/06/26 04:40:28;;;;;;;20.48;10.35;;;;;;;15.22;100.00;101251.16;5006495;28;20041;-80
2022/06/26 04:42:55;;;;;;;20.47;8.73;;;;;;;15.12;100.00;101257.00;5007115;28;20037;-77
2022/06/26 04:45:21;;;;;;;16.33;8.93;;;;;;;15.10;99.36;101256.34;5008609;28;20859;-79
2022/06/26 04:47:46;;;;;;;17.75;9.73;;;;;;;15.06;99.09;101261.34;5006486;28;20095;-78
2022/06/26 04:50:12;;;;;;;15.77;9.18;;;;;;;15.10;99.11;101265.31;5006601;28;20152;-78
2022/06/26 04:52:37;;;;;;;17.85;9.07;;;;;;;15.17;99.42;101280.78;5007561;28;20462;-79
2022/06/26 04:55:03;;;;;;;17.60;9.32;;;;;;;15.11;99.01;101285.97;5007956;28;20049;-78
2022/06/26 04:57:28;;;;;;;17.73;8.82;;;;;;;15.11;99.35;101288.69;5007936;28;20504;-78
2022/06/26 04:59:53;;;;;;;21.98;8.00;;;;;;;15.08;98.95;101290.94;5007802;28;20401;-78
2022/06/26 05:02:19;;;;;;;13.60;7.25;;;;;;;15.03;98.57;101288.81;5008004;28;20403;-80
2022/06/26 05:04:45;;;;;;;17.60;7.43;;;;;;;15.03;98.71;101288.81;4993173;28;20036;-81
2022/06/26 05:07:11;;;;;;;17.05;7.30;;;;;;;15.10;98.83;101283.44;4993518;28;20037;-79
2022/06/26 05:09:36;;;;;;;16.75;6.82;;;;;;;15.24;98.68;101287.06;5011261;28;20080;-82
2022/06/26 05:12:02;;;;;;;12.70;6.15;;;;;;;15.28;97.67;101286.47;4992425;28;20061;-78
2022/06/26 05:14:27;;;;;;;18.30;6.38;;;;;;;15.37;97.50;101285.22;5011119;28;20504;-78
2022/06/26 05:16:53;;;;;;;20.13;6.47;;;;;;;15.53;97.27;101288.63;5011202;28;20049;-78
2022/06/26 05:19:18;;;;;;;12.43;6.70;;;;;;;15.67;96.43;101305.81;5006086;28;20116;-78
2022/06/26 05:21:44;;;;;;;10.30;6.25;;;;;;;15.71;95.10;101305.19;5010926;28;20049;-78
2022/06/26 05:24:09;;;;;;;10.52;5.82;;;;;;;15.56;94.13;101288.22;5011021;28;20032;-77
2022/06/26 05:26:35;;;;;;;10.73;6.03;;;;;;;15.58;94.76;101294.28;5009399;28;20041;-78
2022/06/26 05:29:01;;;;;;;15.48;6.30;;;;;;;15.58;94.67;101300.53;5009858;28;20603;-78
2022/06/26 05:31:26;;;;;;;16.42;6.10;;;;;;;15.53;94.59;101299.47;5025804;28;20037;-78
2022/06/26 05:33:52;;;;;;;18.88;6.93;;;;;;;15.57;94.67;101296.16;5011133;28;20025;-80
2022/06/26 05:36:18;;;;;;;10.90;6.38;;;;;;;15.65;94.52;101283.47;5010825;28;20465;-77
2022/06/26 05:38:43;;;;;;;9.98;5.95;;;;;;;15.83;94.86;101288.34;5016883;28;20060;-78
2022/06/26 05:41:08;;;;;;;18.00;6.25;;;;;;;15.99;93.69;101296.91;5019380;28;20092;-77
2022/06/26 05:43:34;;;;;;;19.13;7.20;;;;;;;15.91;92.27;101302.53;5010822;28;20113;-78
2022/06/26 05:45:59;;;;;;;10.95;6.50;;;;;;;15.82;91.92;101306.47;5010334;28;20466;-74
2022/06/26 05:48:26;;;;;;;10.18;5.72;;;;;;;15.86;92.15;101304.22;5010045;28;20471;-76
2022/06/26 05:50:51;;;;;;;9.90;5.38;;;;;;;15.96;92.45;101305.47;5010173;28;20173;-76
2022/06/26 05:53:17;;;;;;;11.30;5.55;;;;;;;15.98;92.31;101316.13;4992513;28;20031;-76
2022/06/26 05:55:43;;;;;;;12.00;5.80;;;;;;;16.01;92.36;101321.16;4999174;28;20030;-75
2022/06/26 05:58:08;;;;;;;8.15;5.32;;;;;;;15.97;92.54;101312.56;5010171;28;20068;-77
2022/06/26 06:00:34;;;;;;;16.55;6.18;;;;;;;15.96;91.85;101329.09;4999190;28;20041;-76
2022/06/26 06:03:00;;;;;;;14.70;6.15;;;;;;;15.87;91.63;101328.41;5010215;28;20135;-77
2022/06/26 06:05:26;;;;;;;11.80;6.60;;;;;;;15.82;92.30;101324.66;5010023;28;20041;-75
2022/06/26 06:07:52;;;;;;;14.07;6.45;;;;;;;15.87;92.27;101333.00;5008049;28;20038;-76
2022/06/26 06:10:21;;;;;;;12.55;6.70;;;;;;;15.93;92.92;101333.03;5009012;28;20061;-76
2022/06/26 06:12:49;;;;;;;12.90;7.22;;;;;;;15.91;92.33;101331.56;5006108;28;20132;-75
2022/06/26 06:15:14;;;;;;;14.95;6.88;;;;;;;15.90;91.97;101333.44;5002532;28;20066;-75
2022/06/26 06:17:40;;;;;;;9.50;6.60;;;;;;;15.98;92.17;101335.97;5008418;28;20569;-76
2022/06/26 06:20:19;;;;;;;11.32;6.63;;;;;;;16.02;91.75;101329.06;5008689;28;20026;-77
2022/06/26 06:22:51;;;;;;;10.88;7.47;;;;;;;16.01;91.61;101327.41;5009206;28;20034;-77
2022/06/26 06:25:16;;;;;;;16.63;6.95;;;;;;;16.10;91.80;101343.50;5007196;28;20030;-78
2022/06/26 06:27:42;;;;;;;18.13;6.90;;;;;;;16.23;91.34;101343.53;4984211;28;20037;-78
2022/06/26 06:30:09;;;;;;;13.70;6.60;;;;;;;16.23;90.45;101357.09;5006104;28;20040;-76
2022/06/26 06:32:35;;;;;;;14.07;7.43;;;;;;;16.39;90.91;101373.00;5004808;28;20436;-78
2022/06/26 06:35:01;;;;;;;13.55;7.00;;;;;;;16.54;90.12;101377.41;5003466;28;20042;-80
2022/06/26 06:37:27;;;;;;;12.48;6.47;;;;;;;16.82;89.99;101378.06;4992839;28;20073;-76
2022/06/26 06:39:54;;;;;;;8.57;6.20;;;;;;;17.09;88.42;101386.19;4997804;28;20509;-77
2022/06/26 06:42:19;;;;;;;16.02;6.90;;;;;;;17.22;87.95;101397.06;4996610;28;20406;-80
2022/06/26 06:44:45;;;;;;;10.52;5.78;;;;;;;17.33;86.47;101410.00;4998745;28;20030;-78
2022/06/26 06:47:12;;;;;;;14.93;5.97;;;;;;;17.58;84.84;101419.34;4995077;28;20030;-77
2022/06/26 06:49:38;;;;;;;11.85;5.85;;;;;;;17.80;83.07;101409.03;4996051;28;20409;-77
2022/06/26 06:52:04;;;;;;;11.95;5.38;;;;;;;17.86;82.48;101406.28;4998347;28;20049;-75
2022/06/26 06:54:29;;;;;;;7.22;5.20;;;;;;;17.85;82.60;101420.09;4993110;28;20118;-77
2022/06/26 06:56:55;;;;;;;10.27;5.20;;;;;;;17.68;82.90;101420.56;4996063;28;20479;-77
2022/06/26 06:59:21;;;;;;;8.40;5.13;;;;;;;17.57;81.81;101420.41;4998351;28;20036;-78
2022/06/26 07:01:46;;;;;;;13.40;5.40;;;;;;;17.54;82.26;101430.66;4983884;28;20026;-77
2022/06/26 07:04:12;;;;;;;13.13;4.80;;;;;;;17.37;83.35;101431.34;4994844;28;20372;-77
2022/06/26 07:06:37;;;;;;;9.65;5.35;;;;;;;17.02;83.24;101429.72;5000286;28;20481;-76
2022/06/26 07:09:03;;;;;;;9.60;5.35;;;;;;;17.00;83.85;101436.41;5002500;28;20030;-78
2022/06/26 07:11:29;;;;;;;8.45;5.47;;;;;;;17.28;83.86;101430.72;4996487;28;20028;-77
2022/06/26 07:13:54;;;;;;;8.70;5.28;;;;;;;17.50;81.45;101426.69;5003537;28;20084;-76
2022/06/26 07:16:19;;;;;;;8.35;4.47;;;;;;;17.75;78.87;101440.44;5010114;28;20088;-75
2022/06/26 07:18:45;;;;;;;8.90;4.22;;;;;;;18.17;78.38;101440.91;5009417;28;20385;-76
2022/06/26 07:21:10;;;;;;;7.57;4.53;;;;;;;18.35;76.96;101439.34;5010538;28;20478;-78
2022/06/26 07:23:36;;;;;;;8.48;4.55;;;;;;;18.16;76.71;101430.22;5010399;28;20550;-76
2022/06/26 07:26:01;;;;;;;9.57;4.13;;;;;;;18.34;77.76;101426.78;5010974;28;20029;-76
2022/06/26 07:28:27;;;;;;;14.18;4.35;;;;;;;18.72;77.09;101424.00;5011558;28;20030;-76
2022/06/26 07:30:53;;;;;;;9.35;4.50;;;;;;;18.69;74.79;101439.94;5011762;28;20076;-76
2022/06/26 07:36:03;;;;;;;9.35;4.32;;;;;;;19.48;72.84;101433.81;5011423;28;20088;-76
2022/06/26 07:38:28;;;;;;;10.88;4.43;;;;;;;19.62;70.77;101439.13;5010996;28;20706;-77
2022/06/26 07:40:54;;;;;;;6.28;3.97;;;;;;;19.56;69.37;101440.84;5011588;28;20068;-76
2022/06/26 07:43:19;;;;;;;9.82;3.65;;;;;;;19.46;70.58;101444.13;5011256;28;20026;-76
2022/06/26 07:45:45;;;;;;;8.85;3.70;;;;;;;19.28;69.72;101452.28;5011247;28;20140;-76
2022/06/26 07:48:10;;;;;;;8.98;3.53;;;;;;;20.05;68.88;101455.41;5011058;28;20097;-76
2022/06/26 07:50:35;;;;;;;8.48;3.63;;;;;;;20.51;65.45;101443.03;5010938;28;20113;-75
2022/06/26 07:53:02;;;;;;;10.90;3.40;;;;;;;21.08;64.95;101448.00;5010777;28;20396;-75
2022/06/26 07:55:27;;;;;;;6.47;3.60;;;;;;;20.96;62.91;101449.91;5010785;28;20041;-75
2022/06/26 07:57:53;;;;;;;8.85;3.75;;;;;;;20.71;64.56;101447.38;5018103;28;20489;-75
2022/06/26 08:00:18;;;;;;;11.75;3.60;;;;;;;20.37;64.54;101442.34;5019252;28;20121;-75
2022/06/26 08:02:44;;;;;;;9.00;3.55;;;;;;;20.23;64.63;101443.63;5022379;28;20072;-76
2022/06/26 08:05:09;;;;;;;6.47;3.13;;;;;;;21.32;63.41;101453.50;5021183;28;20034;-76
2022/06/26 08:07:34;;;;;;;6.68;3.40;;;;;;;21.83;60.65;101455.47;5018670;28;20042;-76
2022/06/26 08:10:00;;;;;;;6.32;3.42;;;;;;;21.56;59.88;101459.81;5009598;28;20030;-76
2022/06/26 08:12:25;;;;;;;9.57;3.13;;;;;;;21.92;61.69;101461.41;5011100;28;20105;-75
2022/06/26 08:14:51;;;;;;;7.13;3.17;;;;;;;23.11;57.14;101471.59;5004184;28;20076;-77
2022/06/26 08:17:16;;;;;;;6.95;3.00;;;;;;;24.05;54.87;101467.97;5015127;28;20066;-76
2022/06/26 08:19:42;;;;;;;4.22;2.75;;;;;;;24.05;54.73;101467.97;5018366;28;20041;-76
2022/06/26 08:22:07;;;;;;;10.25;2.80;;;;;;;23.85;53.08;101471.28;5018166;28;20032;-76
2022/06/26 08:24:33;;;;;;;6.68;2.88;;;;;;;23.32;53.38;101469.16;5019478;28;20030;-77
2022/06/26 08:26:59;;;;;;;4.80;2.40;;;;;;;23.57;51.78;101460.47;5011548;28;20032;-76
2022/06/26 08:29:25;;;;;;;12.02;2.92;;;;;;;23.13;52.77;101461.19;5017356;28;20077;-75
2022/06/26 08:31:51;;;;;;;6.55;2.67;;;;;;;22.09;57.41;101454.09;5016604;28;20029;-76
2022/06/26 08:34:16;;;;;;;7.13;2.97;;;;;;;22.69;55.45;101446.44;5019056;28;20133;-76
2022/06/26 08:36:42;;;;;;;4.05;2.50;;;;;;;23.45;52.09;101450.38;5018208;28;20029;-76
2022/06/26 08:39:07;;;;;;;7.00;2.45;;;;;;;23.72;51.58;101454.34;5020975;28;20605;-76
2022/06/26 08:41:40;;;;;;;4.85;2.13;;;;;;;24.32;49.86;101464.41;5016832;28;20250;-75
2022/06/26 08:44:07;;;;;;;6.75;2.50;;;;;;;24.58;49.82;101462.78;5014303;28;20496;-76
2022/06/26 08:46:36;;;;;;;9.18;2.25;;;;;;;24.27;50.54;101467.09;5015994;28;20454;-74
2022/06/26 08:49:02;;;;;;;5.82;2.30;;;;;;;23.85;49.91;101470.47;5022914;28;20153;-75
2022/06/26 08:51:27;;;;;;;3.80;1.98;;;;;;;23.95;48.24;101472.50;5020399;28;20058;-76
2022/06/26 08:53:53;;;;;;;5.55;2.13;;;;;;;23.69;49.39;101472.16;5025667;28;20029;-75
2022/06/26 08:56:19;;;;;;;3.20;1.80;;;;;;;23.66;48.92;101467.16;5023215;28;20041;-76
2022/06/26 08:58:44;;;;;;;6.20;1.70;;;;;;;23.84;47.23;101474.31;5015514;28;20037;-76
2022/06/26 09:01:10;;;;;;;3.60;1.58;;;;;;;23.38;49.14;101479.13;5016747;28;20155;-75
2022/06/26 09:03:35;;;;;;;7.68;1.95;;;;;;;23.05;48.18;101466.28;5021618;28;20041;-76
2022/06/26 09:06:02;;;;;;;2.95;1.48;;;;;;;22.38;49.38;101478.81;5014126;28;20026;-75
2022/06/26 09:08:29;;;;;;;8.95;1.98;;;;;;;22.65;49.01;101473.53;5014593;28;20022;-75
2022/06/26 09:10:54;;;;;;;3.58;1.70;;;;;;;22.05;49.77;101468.53;5015639;28;20030;-75
2022/06/26 09:13:20;;;;;;;2.65;1.40;;;;;;;21.78;51.47;101463.59;5016257;28;20032;-75
2022/06/26 09:15:45;;;;;;;5.93;1.45;;;;;;;21.57;49.11;101467.78;5019551;28;20032;-76
2022/06/26 09:18:12;;;;;;;3.55;1.50;;;;;;;21.23;49.69;101477.66;5017454;28;20072;-75
2022/06/26 09:20:58;;;;;;;4.07;1.55;;;;;;;21.53;50.80;101484.94;5015936;28;20068;-77
2022/06/26 09:23:23;;;;;;;7.68;1.60;;;;;;;22.65;49.79;101483.69;5017470;28;20033;-77
2022/06/26 09:25:49;;;;;;;6.15;1.52;;;;;;;23.60;46.40;101477.25;5018982;28;20501;-77
2022/06/26 09:28:18;;;;;;;5.60;1.67;;;;;;;24.25;44.65;101483.03;5016870;28;20022;-74
2022/06/26 09:31:11;;;;;;;4.45;1.77;;;;;;;24.11;44.96;101490.84;5018873;28;20646;-74
2022/06/26 09:33:39;;;;;;;5.82;1.52;;;;;;;24.26;43.55;101477.28;5018545;28;20037;-75
2022/06/26 09:36:05;;;;;;;3.75;1.30;;;;;;;24.44;45.20;101491.78;5014364;28;20145;-76
2022/06/26 09:38:33;;;;;;;5.85;1.60;;;;;;;24.17;45.92;101495.34;5013873;28;20100;-74
2022/06/26 09:41:04;;;;;;;6.68;1.60;;;;;;;24.03;46.56;101483.06;5011398;28;20486;-76
2022/06/26 09:43:32;;;;;;;3.50;1.38;;;;;;;23.11;44.63;101482.56;5014147;28;20037;-77
2022/06/26 09:46:03;;;;;;;3.80;1.63;;;;;;;23.39;46.30;101486.31;5014373;28;20032;-76
2022/06/26 09:48:29;;;;;;;3.35;1.13;;;;;;;23.67;44.26;101485.31;5013755;28;20048;-76
2022/06/26 09:50:55;;;;;;;5.70;1.58;;;;;;;23.25;44.34;101488.56;5013473;28;20394;-76
2022/06/26 09:53:22;;;;;;;3.90;1.48;;;;;;;23.06;45.02;101489.88;5012907;28;20021;-76
2022/06/26 09:55:48;;;;;;;5.10;1.33;;;;;;;22.95;44.99;101494.34;5016312;28;20030;-74
2022/06/26 09:58:14;;;;;;;4.63;1.50;;;;;;;22.26;46.57;101491.72;5017298;28;20095;-76
2022/06/26 10:00:40;;;;;;;3.03;1.35;;;;;;;22.42;48.14;101504.66;5014694;28;20425;-75
2022/06/26 10:08:36;;;;;;;8.10;2.00;;;;;;;21.80;48.66;101505.28;5012506;28;20211;-74
2022/06/26 10:11:03;;;;;;;4.90;1.63;;;;;;;21.66;49.06;101496.47;5013576;28;20515;-75
2022/06/26 10:13:30;;;;;;;6.70;1.88;;;;;;;21.52;50.38;101492.34;5014799;28;20029;-73
2022/06/26 10:16:10;;;;;;;11.55;1.90;;;;;;;21.50;49.05;101499.13;5013551;28;20037;-75
2022/06/26 10:19:02;;;;;;;4.03;1.80;;;;;;;21.47;50.16;101508.63;5011186;28;20061;-75
2022/06/26 10:21:28;;;;;;;5.78;2.00;;;;;;;21.53;50.40;101499.47;5014748;28;20073;-76
2022/06/26 10:24:02;;;;;;;4.63;1.77;;;;;;;21.62;50.93;101499.94;5015455;28;20030;-76
2022/06/26 10:26:27;;;;;;;7.15;2.22;;;;;;;21.68;50.56;101499.81;5017514;28;20026;-76
2022/06/26 10:28:58;;;;;;;5.15;1.85;;;;;;;21.46;50.43;101493.28;5018874;28;20481;-75
2022/06/26 10:31:24;;;;;;;6.82;1.73;;;;;;;21.42;51.44;101492.09;4998471;28;20037;-76
2022/06/26 10:33:49;;;;;;;7.78;1.88;;;;;;;21.36;51.90;101504.81;5011449;28;20053;-76
2022/06/26 10:36:22;;;;;;;5.22;1.70;;;;;;;21.44;51.51;101500.91;5015568;28;20050;-76
2022/06/26 10:38:47;;;;;;;7.07;2.10;;;;;;;21.30;50.66;101496.69;5016498;28;20026;-74
2022/06/26 10:44:07;;;;;;;5.28;1.60;;;;;;;21.67;51.30;101494.59;4997934;28;20061;-77
2022/06/26 10:46:44;;;;;;;5.28;2.25;;;;;;;21.85;50.71;101497.19;4994964;28;20559;-77
2022/06/26 10:49:09;;;;;;;4.13;1.85;;;;;;;22.36;49.59;101500.16;5006622;28;20034;-77
2022/06/26 10:51:39;;;;;;;8.45;2.30;;;;;;;22.78;48.71;101499.84;5013765;28;20044;-75
2022/06/26 10:54:17;;;;;;;5.78;1.92;;;;;;;22.13;50.35;101499.13;5012914;28;20026;-74
2022/06/26 10:56:42;;;;;;;5.25;1.77;;;;;;;21.66;49.64;101496.47;5012212;28;20037;-75
2022/06/26 10:59:07;;;;;;;6.68;1.98;;;;;;;21.63;50.56;101494.22;5010915;28;20026;-75
2022/06/26 11:01:33;;;;;;;5.60;1.60;;;;;;;21.62;49.73;101502.69;5011736;28;20084;-74
2022/06/26 11:04:02;;;;;;;4.05;1.50;;;;;;;21.82;50.24;101502.28;5015064;28;20029;-76
2022/06/26 11:06:27;;;;;;;12.25;1.90;;;;;;;21.64;49.21;101506.84;4998215;28;20359;-75
2022/06/26 11:08:54;;;;;;;5.68;1.80;;;;;;;21.54;50.31;101503.88;4996977;28;20022;-75
2022/06/26 11:11:31;;;;;;;3.83;1.33;;;;;;;21.65;49.21;101497.56;5003682;28;20045;-76
2022/06/26 11:14:08;;;;;;;6.07;1.77;;;;;;;21.85;49.46;101501.81;5017524;28;20052;-75
2022/06/26 11:16:43;;;;;;;4.60;2.00;;;;;;;21.92;48.17;101492.38;5010092;28;20157;-75
2022/06/26 11:19:22;;;;;;;6.10;1.92;;;;;;;22.35;49.39;101498.47;5004933;28;20037;-76
2022/06/26 11:21:47;;;;;;;5.68;1.90;;;;;;;22.81;46.86;101493.03;5015085;28;20077;-77
2022/06/26 11:24:13;;;;;;;5.40;2.00;;;;;;;22.90;47.99;101497.84;4998572;28;20113;-76
2022/06/26 11:26:38;;;;;;;6.47;2.30;;;;;;;22.97;48.20;101487.56;5024393;28;20040;-77